sensor_id;sensor_type;location;lat;lon;timestamp;temperature;humidity
10312;DHT22;5201;48.776;9.128;2023-04-25T00:01:17;10.30;99.90
10312;DHT22;5201;48.776;9.128;2023-04-25T00:03:42;10.20;99.90
10312;DHT22;5201;48.776;9.128;2023-04-25T00:06:08;10.20;99.90
10312;DHT22;5201;48.776;9.128;2023-04-25T00:08:34;10.20;99.90
10312;DHT22;5201;48.776;9.128;2023-04-25T00:11:01;10.10;99.90
10312;DHT22;5201;48.776;9.128;2023-04-25T00:13:27;10.20;99.90
10312;DHT22;5201;48.776;9.128;2023-04-25T00:15:52;10.50;99.90
10312;DHT22;5201;48.776;9.128;2023-04-25T00:18:19;10.30;99.90
10312;DHT22;5201;48.776;9.128;2023-04-25T00:20:45;10.30;99.90
10312;DHT22;5201;48.776;9.128;2023-04-25T00:23:12;10.40;99.90
10312;DHT22;5201;48.776;9.128;2023-04-25T00:25:46;10.40;99.90
10312;DHT22;5201;48.776;9.128;2023-04-25T00:28:12;10.30;99.90
10312;DHT22;5201;48.776;9.128;2023-04-25T00:30:39;10.30;99.90
10312;DHT22;5201;48.776;9.128;2023-04-25T00:33:05;10.50;99.90
10312;DHT22;5201;48.776;9.128;2023-04-25T00:35:31;10.20;99.90
10312;DHT22;5201;48.776;9.128;2023-04-25T00:37:57;10.20;99.90
10312;DHT22;5201;48.776;9.128;2023-04-25T00:40:22;10.30;99.90
10312;DHT22;5201;48.776;9.128;2023-04-25T00:42:49;10.30;99.90
10312;DHT22;5201;48.776;9.128;2023-04-25T00:45:17;10.30;99.90
10312;DHT22;5201;48.776;9.128;2023-04-25T00:47:43;10.20;99.90
10312;DHT22;5201;48.776;9.128;2023-04-25T00:50:09;10.20;99.90
10312;DHT22;5201;48.776;9.128;2023-04-25T00:52:38;10.00;99.90
10312;DHT22;5201;48.776;9.128;2023-04-25T00:55:05;9.90;99.90
10312;DHT22;5201;48.776;9.128;2023-04-25T00:57:31;9.90;99.90
10312;DHT22;5201;48.776;9.128;2023-04-25T00:59:56;10.00;99.90
10312;DHT22;5201;48.776;9.128;2023-04-25T01:02:23;9.70;99.90
10312;DHT22;5201;48.776;9.128;2023-04-25T01:04:49;9.20;99.90
10312;DHT22;5201;48.776;9.128;2023-04-25T01:07:14;9.00;99.90
10312;DHT22;5201;48.776;9.128;2023-04-25T01:09:41;9.00;99.90
10312;DHT22;5201;48.776;9.128;2023-04-25T01:12:06;9.10;99.90
10312;DHT22;5201;48.776;9.128;2023-04-25T01:14:32;9.10;99.90
10312;DHT22;5201;48.776;9.128;2023-04-25T01:16:59;9.20;99.90
10312;DHT22;5201;48.776;9.128;2023-04-25T01:19:25;9.50;99.90
10312;DHT22;5201;48.776;9.128;2023-04-25T01:21:51;9.50;99.90
10312;DHT22;5201;48.776;9.128;2023-04-25T01:24:17;9.60;99.90
10312;DHT22;5201;48.776;9.128;2023-04-25T01:26:43;9.70;99.90
10312;DHT22;5201;48.776;9.128;2023-04-25T01:29:19;9.80;99.90
10312;DHT22;5201;48.776;9.128;2023-04-25T01:31:45;9.90;99.90
10312;DHT22;5201;48.776;9.128;2023-04-25T01:34:12;10.20;99.90
10312;DHT22;5201;48.776;9.128;2023-04-25T01:36:38;9.80;99.90
10312;DHT22;5201;48.776;9.128;2023-04-25T01:39:05;9.60;99.90
10312;DHT22;5201;48.776;9.128;2023-04-25T01:41:31;10.30;99.90
10312;DHT22;5201;48.776;9.128;2023-04-25T01:43:56;9.50;99.90
10312;DHT22;5201;48.776;9.128;2023-04-25T01:46:22;9.50;99.90
10312;DHT22;5201;48.776;9.128;2023-04-25T01:48:48;9.60;99.90
10312;DHT22;5201;48.776;9.128;2023-04-25T01:51:14;9.60;99.90
10312;DHT22;5201;48.776;9.128;2023-04-25T01:53:40;9.60;99.90
10312;DHT22;5201;48.776;9.128;2023-04-25T01:56:06;9.70;99.90
10312;DHT22;5201;48.776;9.128;2023-04-25T01:58:32;9.80;99.90
10312;DHT22;5201;48.776;9.128;2023-04-25T02:00:58;9.90;99.90
10312;DHT22;5201;48.776;9.128;2023-04-25T02:03:23;9.90;99.90
10312;DHT22;5201;48.776;9.128;2023-04-25T02:05:49;10.00;99.90
10312;DHT22;5201;48.776;9.128;2023-04-25T02:08:16;10.00;99.90
10312;DHT22;5201;48.776;9.128;2023-04-25T02:10:42;9.80;99.90
10312;DHT22;5201;48.776;9.128;2023-04-25T02:13:07;10.40;99.90
10312;DHT22;5201;48.776;9.128;2023-04-25T02:15:33;9.90;99.90
10312;DHT22;5201;48.776;9.128;2023-04-25T02:17:59;10.00;99.90
10312;DHT22;5201;48.776;9.128;2023-04-25T02:20:25;10.00;99.90
10312;DHT22;5201;48.776;9.128;2023-04-25T02:22:52;10.00;99.90
10312;DHT22;5201;48.776;9.128;2023-04-25T02:25:19;10.00;99.90
10312;DHT22;5201;48.776;9.128;2023-04-25T02:27:46;10.00;99.90
10312;DHT22;5201;48.776;9.128;2023-04-25T02:30:12;10.50;99.90
10312;DHT22;5201;48.776;9.128;2023-04-25T02:32:38;9.90;99.90
10312;DHT22;5201;48.776;9.128;2023-04-25T02:35:04;9.90;99.90
10312;DHT22;5201;48.776;9.128;2023-04-25T02:37:31;9.80;99.90
10312;DHT22;5201;48.776;9.128;2023-04-25T02:39:57;9.70;99.90
10312;DHT22;5201;48.776;9.128;2023-04-25T02:42:22;9.60;99.90
10312;DHT22;5201;48.776;9.128;2023-04-25T02:44:48;9.60;99.90
10312;DHT22;5201;48.776;9.128;2023-04-25T02:47:14;9.60;99.90
10312;DHT22;5201;48.776;9.128;2023-04-25T02:49:39;8.80;99.90
10312;DHT22;5201;48.776;9.128;2023-04-25T02:52:05;9.70;99.90
10312;DHT22;5201;48.776;9.128;2023-04-25T02:54:31;9.70;99.90
10312;DHT22;5201;48.776;9.128;2023-04-25T02:56:57;9.50;99.90
10312;DHT22;5201;48.776;9.128;2023-04-25T02:59:23;9.40;99.90
10312;DHT22;5201;48.776;9.128;2023-04-25T03:01:48;9.50;99.90
10312;DHT22;5201;48.776;9.128;2023-04-25T03:04:14;9.50;99.90
10312;DHT22;5201;48.776;9.128;2023-04-25T03:06:39;9.50;99.90
10312;DHT22;5201;48.776;9.128;2023-04-25T03:09:05;9.50;99.90
10312;DHT22;5201;48.776;9.128;2023-04-25T03:11:30;9.80;99.90
10312;DHT22;5201;48.776;9.128;2023-04-25T03:13:56;10.30;99.90
10312;DHT22;5201;48.776;9.128;2023-04-25T03:16:22;9.40;99.90
10312;DHT22;5201;48.776;9.128;2023-04-25T03:18:47;9.50;99.90
10312;DHT22;5201;48.776;9.128;2023-04-25T03:21:15;9.50;99.90
10312;DHT22;5201;48.776;9.128;2023-04-25T03:23:40;9.50;99.90
10312;DHT22;5201;48.776;9.128;2023-04-25T03:26:06;9.60;99.90
10312;DHT22;5201;48.776;9.128;2023-04-25T03:28:31;10.00;99.90
10312;DHT22;5201;48.776;9.128;2023-04-25T03:30:57;9.80;99.90
10312;DHT22;5201;48.776;9.128;2023-04-25T03:33:22;9.40;99.90
10312;DHT22;5201;48.776;9.128;2023-04-25T03:35:48;9.90;99.90
10312;DHT22;5201;48.776;9.128;2023-04-25T03:38:15;9.90;99.90
10312;DHT22;5201;48.776;9.128;2023-04-25T03:40:41;9.40;99.90
10312;DHT22;5201;48.776;9.128;2023-04-25T03:43:06;9.40;99.90
10312;DHT22;5201;48.776;9.128;2023-04-25T03:45:32;9.40;99.90
10312;DHT22;5201;48.776;9.128;2023-04-25T03:47:58;9.50;99.90
10312;DHT22;5201;48.776;9.128;2023-04-25T03:50:23;9.40;99.90
10312;DHT22;5201;48.776;9.128;2023-04-25T03:52:49;9.40;99.90
10312;DHT22;5201;48.776;9.128;2023-04-25T03:55:15;10.00;99.90
10312;DHT22;5201;48.776;9.128;2023-04-25T03:57:40;9.50;99.90
10312;DHT22;5201;48.776;9.128;2023-04-25T04:00:07;9.50;99.90
10312;DHT22;5201;48.776;9.128;2023-04-25T04:02:33;9.40;99.90
10312;DHT22;5201;48.776;9.128;2023-04-25T04:05:00;9.50;99.90
10312;DHT22;5201;48.776;9.128;2023-04-25T04:07:26;9.30;99.90
10312;DHT22;5201;48.776;9.128;2023-04-25T04:09:51;9.30;99.90
10312;DHT22;5201;48.776;9.128;2023-04-25T04:12:17;9.30;99.90
10312;DHT22;5201;48.776;9.128;2023-04-25T04:14:42;9.20;99.90
10312;DHT22;5201;48.776;9.128;2023-04-25T04:17:08;9.10;99.90
10312;DHT22;5201;48.776;9.128;2023-04-25T04:19:34;9.10;99.90
10312;DHT22;5201;48.776;9.128;2023-04-25T04:21:59;9.10;99.90
10312;DHT22;5201;48.776;9.128;2023-04-25T04:24:25;9.10;99.90
10312;DHT22;5201;48.776;9.128;2023-04-25T04:26:50;9.20;99.90
10312;DHT22;5201;48.776;9.128;2023-04-25T04:29:17;9.50;99.90
10312;DHT22;5201;48.776;9.128;2023-04-25T04:31:50;9.20;99.90
10312;DHT22;5201;48.776;9.128;2023-04-25T04:34:18;9.10;99.90
10312;DHT22;5201;48.776;9.128;2023-04-25T04:36:44;9.10;99.90
10312;DHT22;5201;48.776;9.128;2023-04-25T04:39:12;9.60;99.90
10312;DHT22;5201;48.776;9.128;2023-04-25T04:41:38;9.10;99.90
10312;DHT22;5201;48.776;9.128;2023-04-25T04:44:04;9.20;99.90
10312;DHT22;5201;48.776;9.128;2023-04-25T04:46:29;9.20;99.90
10312;DHT22;5201;48.776;9.128;2023-04-25T04:48:56;9.30;99.90
10312;DHT22;5201;48.776;9.128;2023-04-25T04:51:22;9.40;99.90
10312;DHT22;5201;48.776;9.128;2023-04-25T04:53:48;9.40;99.90
10312;DHT22;5201;48.776;9.128;2023-04-25T04:56:13;9.40;99.90
10312;DHT22;5201;48.776;9.128;2023-04-25T04:58:39;9.40;99.90
10312;DHT22;5201;48.776;9.128;2023-04-25T05:01:05;9.50;99.90
10312;DHT22;5201;48.776;9.128;2023-04-25T05:03:31;9.50;99.90
10312;DHT22;5201;48.776;9.128;2023-04-25T05:05:56;9.50;99.90
10312;DHT22;5201;48.776;9.128;2023-04-25T05:08:22;9.50;99.90
10312;DHT22;5201;48.776;9.128;2023-04-25T05:10:48;9.40;99.90
10312;DHT22;5201;48.776;9.128;2023-04-25T05:13:13;9.50;99.90
10312;DHT22;5201;48.776;9.128;2023-04-25T05:15:39;9.60;99.90
10312;DHT22;5201;48.776;9.128;2023-04-25T05:18:04;9.60;99.90
10312;DHT22;5201;48.776;9.128;2023-04-25T05:20:30;9.70;99.90
10312;DHT22;5201;48.776;9.128;2023-04-25T05:22:55;9.70;99.90
10312;DHT22;5201;48.776;9.128;2023-04-25T05:25:21;9.70;99.90
10312;DHT22;5201;48.776;9.128;2023-04-25T05:27:47;9.70;99.90
10312;DHT22;5201;48.776;9.128;2023-04-25T05:30:12;9.80;99.90
10312;DHT22;5201;48.776;9.128;2023-04-25T05:32:38;9.90;99.90
10312;DHT22;5201;48.776;9.128;2023-04-25T05:35:04;9.90;99.90
10312;DHT22;5201;48.776;9.128;2023-04-25T05:37:30;10.00;99.90
10312;DHT22;5201;48.776;9.128;2023-04-25T05:39:57;10.10;99.90
10312;DHT22;5201;48.776;9.128;2023-04-25T05:42:23;10.00;99.90
10312;DHT22;5201;48.776;9.128;2023-04-25T05:44:49;10.00;99.90
10312;DHT22;5201;48.776;9.128;2023-04-25T05:47:14;10.40;99.90
10312;DHT22;5201;48.776;9.128;2023-04-25T05:49:40;9.90;99.90
10312;DHT22;5201;48.776;9.128;2023-04-25T05:52:06;9.90;99.90
10312;DHT22;5201;48.776;9.128;2023-04-25T05:54:31;9.90;99.90
10312;DHT22;5201;48.776;9.128;2023-04-25T05:56:57;9.90;99.90
10312;DHT22;5201;48.776;9.128;2023-04-25T05:59:23;9.90;99.90
10312;DHT22;5201;48.776;9.128;2023-04-25T06:01:48;9.90;99.90
10312;DHT22;5201;48.776;9.128;2023-04-25T06:04:14;9.90;99.90
10312;DHT22;5201;48.776;9.128;2023-04-25T06:06:39;9.90;99.90
10312;DHT22;5201;48.776;9.128;2023-04-25T06:09:05;9.90;99.90
10312;DHT22;5201;48.776;9.128;2023-04-25T06:11:30;9.90;99.90
10312;DHT22;5201;48.776;9.128;2023-04-25T06:13:56;9.90;99.90
10312;DHT22;5201;48.776;9.128;2023-04-25T06:16:22;9.80;99.90
10312;DHT22;5201;48.776;9.128;2023-04-25T06:18:47;9.80;99.90
10312;DHT22;5201;48.776;9.128;2023-04-25T06:21:13;9.80;99.90
10312;DHT22;5201;48.776;9.128;2023-04-25T06:23:38;10.00;99.90
10312;DHT22;5201;48.776;9.128;2023-04-25T06:26:04;10.00;99.90
10312;DHT22;5201;48.776;9.128;2023-04-25T06:28:30;10.30;99.90
10312;DHT22;5201;48.776;9.128;2023-04-25T06:30:55;10.00;99.90
10312;DHT22;5201;48.776;9.128;2023-04-25T06:33:21;10.10;99.90
10312;DHT22;5201;48.776;9.128;2023-04-25T06:35:47;10.20;99.90
10312;DHT22;5201;48.776;9.128;2023-04-25T06:38:13;10.20;99.90
10312;DHT22;5201;48.776;9.128;2023-04-25T06:40:38;10.10;99.90
10312;DHT22;5201;48.776;9.128;2023-04-25T06:43:04;10.00;99.90
10312;DHT22;5201;48.776;9.128;2023-04-25T06:45:30;9.90;99.90
10312;DHT22;5201;48.776;9.128;2023-04-25T06:47:55;9.90;99.90
10312;DHT22;5201;48.776;9.128;2023-04-25T06:50:21;9.90;99.90
10312;DHT22;5201;48.776;9.128;2023-04-25T06:52:47;9.90;99.90
10312;DHT22;5201;48.776;9.128;2023-04-25T06:55:12;9.80;99.90
10312;DHT22;5201;48.776;9.128;2023-04-25T06:57:38;9.80;99.90
10312;DHT22;5201;48.776;9.128;2023-04-25T07:00:04;10.30;99.90
10312;DHT22;5201;48.776;9.128;2023-04-25T07:02:35;9.80;99.90
10312;DHT22;5201;48.776;9.128;2023-04-25T07:05:01;9.80;99.90
10312;DHT22;5201;48.776;9.128;2023-04-25T07:07:29;9.80;99.90
10312;DHT22;5201;48.776;9.128;2023-04-25T07:09:56;9.90;99.90
10312;DHT22;5201;48.776;9.128;2023-04-25T07:12:21;9.90;99.90
10312;DHT22;5201;48.776;9.128;2023-04-25T07:14:47;9.90;99.90
10312;DHT22;5201;48.776;9.128;2023-04-25T07:17:12;9.90;99.90
10312;DHT22;5201;48.776;9.128;2023-04-25T07:19:38;10.30;99.90
10312;DHT22;5201;48.776;9.128;2023-04-25T07:22:05;9.90;99.90
10312;DHT22;5201;48.776;9.128;2023-04-25T07:24:31;9.90;99.90
10312;DHT22;5201;48.776;9.128;2023-04-25T07:26:57;9.90;99.90
10312;DHT22;5201;48.776;9.128;2023-04-25T07:29:23;9.90;99.90
10312;DHT22;5201;48.776;9.128;2023-04-25T07:31:49;10.60;99.90
10312;DHT22;5201;48.776;9.128;2023-04-25T07:34:15;10.50;99.90
10312;DHT22;5201;48.776;9.128;2023-04-25T07:36:41;9.80;99.90
10312;DHT22;5201;48.776;9.128;2023-04-25T07:39:07;9.70;99.90
10312;DHT22;5201;48.776;9.128;2023-04-25T07:41:34;9.80;99.90
10312;DHT22;5201;48.776;9.128;2023-04-25T07:44:00;9.80;99.90
10312;DHT22;5201;48.776;9.128;2023-04-25T07:46:25;9.80;99.90
10312;DHT22;5201;48.776;9.128;2023-04-25T07:48:51;10.00;99.90
10312;DHT22;5201;48.776;9.128;2023-04-25T07:51:17;9.90;99.90
10312;DHT22;5201;48.776;9.128;2023-04-25T07:53:45;9.90;99.90
10312;DHT22;5201;48.776;9.128;2023-04-25T07:56:11;9.90;99.90
10312;DHT22;5201;48.776;9.128;2023-04-25T07:58:37;9.90;99.90
10312;DHT22;5201;48.776;9.128;2023-04-25T08:01:02;10.00;99.90
10312;DHT22;5201;48.776;9.128;2023-04-25T08:03:28;9.90;99.90
10312;DHT22;5201;48.776;9.128;2023-04-25T08:05:54;9.80;99.90
10312;DHT22;5201;48.776;9.128;2023-04-25T08:08:19;10.00;99.90
10312;DHT22;5201;48.776;9.128;2023-04-25T08:10:45;9.90;99.90
10312;DHT22;5201;48.776;9.128;2023-04-25T08:13:11;11.60;99.90
10312;DHT22;5201;48.776;9.128;2023-04-25T08:15:36;10.20;99.90
10312;DHT22;5201;48.776;9.128;2023-04-25T08:18:02;9.90;99.90
10312;DHT22;5201;48.776;9.128;2023-04-25T08:20:27;9.90;99.90
10312;DHT22;5201;48.776;9.128;2023-04-25T08:22:53;9.90;99.90
10312;DHT22;5201;48.776;9.128;2023-04-25T08:25:19;9.90;99.90
10312;DHT22;5201;48.776;9.128;2023-04-25T08:27:44;9.90;99.90
10312;DHT22;5201;48.776;9.128;2023-04-25T08:30:10;9.80;99.90
10312;DHT22;5201;48.776;9.128;2023-04-25T08:32:36;9.80;99.90
10312;DHT22;5201;48.776;9.128;2023-04-25T08:35:04;9.90;99.90
10312;DHT22;5201;48.776;9.128;2023-04-25T08:37:29;9.90;99.90
10312;DHT22;5201;48.776;9.128;2023-04-25T08:39:55;10.20;99.90
10312;DHT22;5201;48.776;9.128;2023-04-25T08:42:21;9.80;99.90
10312;DHT22;5201;48.776;9.128;2023-04-25T08:44:48;9.70;99.90
10312;DHT22;5201;48.776;9.128;2023-04-25T08:47:14;9.60;99.90
10312;DHT22;5201;48.776;9.128;2023-04-25T08:49:45;9.60;99.90
10312;DHT22;5201;48.776;9.128;2023-04-25T08:52:13;9.40;99.90
10312;DHT22;5201;48.776;9.128;2023-04-25T08:54:42;9.30;99.90
10312;DHT22;5201;48.776;9.128;2023-04-25T08:57:09;9.40;99.90
10312;DHT22;5201;48.776;9.128;2023-04-25T08:59:35;10.10;99.90
10312;DHT22;5201;48.776;9.128;2023-04-25T09:02:03;9.40;99.90
10312;DHT22;5201;48.776;9.128;2023-04-25T09:04:31;9.40;99.90
10312;DHT22;5201;48.776;9.128;2023-04-25T09:06:56;9.50;99.90
10312;DHT22;5201;48.776;9.128;2023-04-25T09:09:23;10.00;99.90
10312;DHT22;5201;48.776;9.128;2023-04-25T09:11:49;9.40;99.90
10312;DHT22;5201;48.776;9.128;2023-04-25T09:14:20;10.20;99.90
10312;DHT22;5201;48.776;9.128;2023-04-25T09:16:59;9.20;99.90
10312;DHT22;5201;48.776;9.128;2023-04-25T09:19:30;9.30;99.90
10312;DHT22;5201;48.776;9.128;2023-04-25T09:22:01;9.40;99.90
10312;DHT22;5201;48.776;9.128;2023-04-25T09:24:42;9.50;99.90
10312;DHT22;5201;48.776;9.128;2023-04-25T09:27:11;9.60;99.90
10312;DHT22;5201;48.776;9.128;2023-04-25T09:29:41;9.60;99.90
10312;DHT22;5201;48.776;9.128;2023-04-25T09:32:11;9.60;99.90
10312;DHT22;5201;48.776;9.128;2023-04-25T09:34:42;9.60;99.90
10312;DHT22;5201;48.776;9.128;2023-04-25T09:37:09;9.70;99.90
10312;DHT22;5201;48.776;9.128;2023-04-25T09:39:37;9.60;99.90
10312;DHT22;5201;48.776;9.128;2023-04-25T09:42:04;9.60;99.90
10312;DHT22;5201;48.776;9.128;2023-04-25T09:44:30;9.40;99.90
10312;DHT22;5201;48.776;9.128;2023-04-25T09:46:55;9.30;99.90
10312;DHT22;5201;48.776;9.128;2023-04-25T09:49:23;9.30;99.90
10312;DHT22;5201;48.776;9.128;2023-04-25T09:51:58;9.40;99.90
10312;DHT22;5201;48.776;9.128;2023-04-25T09:54:24;9.50;99.90
10312;DHT22;5201;48.776;9.128;2023-04-25T09:56:52;9.40;99.90
10312;DHT22;5201;48.776;9.128;2023-04-25T09:59:21;10.40;99.90
10312;DHT22;5201;48.776;9.128;2023-04-25T10:01:49;10.50;99.90
10312;DHT22;5201;48.776;9.128;2023-04-25T10:04:24;9.20;99.90
10312;DHT22;5201;48.776;9.128;2023-04-25T10:06:53;9.90;99.90
10312;DHT22;5201;48.776;9.128;2023-04-25T10:09:20;9.00;99.90
10312;DHT22;5201;48.776;9.128;2023-04-25T10:11:47;9.20;99.90
10312;DHT22;5201;48.776;9.128;2023-04-25T10:14:16;9.30;99.90
10312;DHT22;5201;48.776;9.128;2023-04-25T10:16:42;9.40;99.90
10312;DHT22;5201;48.776;9.128;2023-04-25T10:19:09;9.70;99.90
10312;DHT22;5201;48.776;9.128;2023-04-25T10:21:40;9.40;99.90
10312;DHT22;5201;48.776;9.128;2023-04-25T10:24:09;10.10;99.90
10312;DHT22;5201;48.776;9.128;2023-04-25T10:26:35;9.30;99.90
10312;DHT22;5201;48.776;9.128;2023-04-25T10:29:04;8.20;99.90
10312;DHT22;5201;48.776;9.128;2023-04-25T10:31:30;10.20;99.90
10312;DHT22;5201;48.776;9.128;2023-04-25T10:33:56;9.30;99.90
10312;DHT22;5201;48.776;9.128;2023-04-25T10:36:23;9.30;99.90
10312;DHT22;5201;48.776;9.128;2023-04-25T10:38:50;9.40;99.90
10312;DHT22;5201;48.776;9.128;2023-04-25T10:41:20;9.40;99.90
10312;DHT22;5201;48.776;9.128;2023-04-25T10:43:47;9.40;99.90
10312;DHT22;5201;48.776;9.128;2023-04-25T10:46:17;9.40;99.90
10312;DHT22;5201;48.776;9.128;2023-04-25T10:48:48;9.40;99.90
10312;DHT22;5201;48.776;9.128;2023-04-25T10:51:25;9.20;99.90
10312;DHT22;5201;48.776;9.128;2023-04-25T10:56:23;9.00;99.90
10312;DHT22;5201;48.776;9.128;2023-04-25T10:58:50;8.80;99.90
10312;DHT22;5201;48.776;9.128;2023-04-25T11:01:20;8.60;99.90
10312;DHT22;5201;48.776;9.128;2023-04-25T11:03:46;8.10;99.90
10312;DHT22;5201;48.776;9.128;2023-04-25T11:06:23;8.20;99.90
10312;DHT22;5201;48.776;9.128;2023-04-25T11:08:51;7.90;99.90
10312;DHT22;5201;48.776;9.128;2023-04-25T11:11:19;8.00;99.90
10312;DHT22;5201;48.776;9.128;2023-04-25T11:13:48;8.10;99.90
10312;DHT22;5201;48.776;9.128;2023-04-25T11:16:15;8.30;99.90
10312;DHT22;5201;48.776;9.128;2023-04-25T11:18:44;8.40;99.90
10312;DHT22;5201;48.776;9.128;2023-04-25T11:21:10;8.60;99.90
10312;DHT22;5201;48.776;9.128;2023-04-25T11:23:36;8.70;99.90
10312;DHT22;5201;48.776;9.128;2023-04-25T11:26:03;8.70;99.90
10312;DHT22;5201;48.776;9.128;2023-04-25T11:28:29;8.80;99.90
10312;DHT22;5201;48.776;9.128;2023-04-25T11:30:55;9.10;99.90
10312;DHT22;5201;48.776;9.128;2023-04-25T11:33:25;9.20;99.90
10312;DHT22;5201;48.776;9.128;2023-04-25T11:35:53;9.30;99.90
10312;DHT22;5201;48.776;9.128;2023-04-25T11:38:20;9.50;99.90
10312;DHT22;5201;48.776;9.128;2023-04-25T11:40:50;9.60;99.90
10312;DHT22;5201;48.776;9.128;2023-04-25T11:43:17;9.70;99.90
10312;DHT22;5201;48.776;9.128;2023-04-25T11:45:46;9.90;99.90
10312;DHT22;5201;48.776;9.128;2023-04-25T11:48:12;10.00;99.90
10312;DHT22;5201;48.776;9.128;2023-04-25T11:50:39;10.10;99.90
10312;DHT22;5201;48.776;9.128;2023-04-25T11:53:05;10.30;99.90
10312;DHT22;5201;48.776;9.128;2023-04-25T11:55:31;10.10;99.90
10312;DHT22;5201;48.776;9.128;2023-04-25T11:58:00;10.30;99.90
10312;DHT22;5201;48.776;9.128;2023-04-25T12:00:26;9.90;99.90
10312;DHT22;5201;48.776;9.128;2023-04-25T12:02:53;10.00;99.90
10312;DHT22;5201;48.776;9.128;2023-04-25T12:05:20;10.50;99.90
10312;DHT22;5201;48.776;9.128;2023-04-25T12:07:48;10.10;99.90
10312;DHT22;5201;48.776;9.128;2023-04-25T12:10:16;10.20;99.90
10312;DHT22;5201;48.776;9.128;2023-04-25T12:12:44;10.30;99.90
10312;DHT22;5201;48.776;9.128;2023-04-25T12:15:18;10.30;99.90
10312;DHT22;5201;48.776;9.128;2023-04-25T12:17:48;10.40;99.90
10312;DHT22;5201;48.776;9.128;2023-04-25T12:20:23;10.40;99.90
10312;DHT22;5201;48.776;9.128;2023-04-25T12:22:50;10.30;99.90
10312;DHT22;5201;48.776;9.128;2023-04-25T12:28:20;10.10;99.90
10312;DHT22;5201;48.776;9.128;2023-04-25T12:31:06;10.20;99.90
10312;DHT22;5201;48.776;9.128;2023-04-25T12:33:36;10.00;99.90
10312;DHT22;5201;48.776;9.128;2023-04-25T12:36:03;10.10;99.90
10312;DHT22;5201;48.776;9.128;2023-04-25T12:38:36;10.20;99.90
10312;DHT22;5201;48.776;9.128;2023-04-25T12:41:02;10.30;99.90
10312;DHT22;5201;48.776;9.128;2023-04-25T12:43:28;10.30;99.90
10312;DHT22;5201;48.776;9.128;2023-04-25T12:45:55;10.50;99.90
10312;DHT22;5201;48.776;9.128;2023-04-25T12:48:21;10.80;99.90
10312;DHT22;5201;48.776;9.128;2023-04-25T12:50:47;11.00;99.90
10312;DHT22;5201;48.776;9.128;2023-04-25T12:53:17;11.10;99.90
10312;DHT22;5201;48.776;9.128;2023-04-25T12:55:44;11.20;99.90
10312;DHT22;5201;48.776;9.128;2023-04-25T12:58:17;11.30;99.90
10312;DHT22;5201;48.776;9.128;2023-04-25T13:00:43;11.40;99.90
10312;DHT22;5201;48.776;9.128;2023-04-25T13:03:09;11.30;99.90
10312;DHT22;5201;48.776;9.128;2023-04-25T13:05:35;11.20;99.90
10312;DHT22;5201;48.776;9.128;2023-04-25T13:08:00;11.20;99.90
10312;DHT22;5201;48.776;9.128;2023-04-25T13:10:26;11.90;99.90
10312;DHT22;5201;48.776;9.128;2023-04-25T13:12:52;11.40;99.90
10312;DHT22;5201;48.776;9.128;2023-04-25T13:15:17;11.60;99.90
10312;DHT22;5201;48.776;9.128;2023-04-25T13:17:43;11.60;99.90
10312;DHT22;5201;48.776;9.128;2023-04-25T13:20:09;11.40;99.90
10312;DHT22;5201;48.776;9.128;2023-04-25T13:22:36;11.50;99.90
10312;DHT22;5201;48.776;9.128;2023-04-25T13:25:03;11.60;99.90
10312;DHT22;5201;48.776;9.128;2023-04-25T13:27:29;11.60;99.90
10312;DHT22;5201;48.776;9.128;2023-04-25T13:29:58;12.10;99.90
10312;DHT22;5201;48.776;9.128;2023-04-25T13:32:23;11.80;99.90
10312;DHT22;5201;48.776;9.128;2023-04-25T13:34:49;11.70;99.90
10312;DHT22;5201;48.776;9.128;2023-04-25T13:37:14;11.80;99.90
10312;DHT22;5201;48.776;9.128;2023-04-25T13:39:40;11.50;99.90
10312;DHT22;5201;48.776;9.128;2023-04-25T13:42:06;11.60;99.90
10312;DHT22;5201;48.776;9.128;2023-04-25T13:44:32;12.70;99.90
10312;DHT22;5201;48.776;9.128;2023-04-25T13:46:57;11.80;99.90
10312;DHT22;5201;48.776;9.128;2023-04-25T13:49:23;11.70;99.90
10312;DHT22;5201;48.776;9.128;2023-04-25T13:51:48;11.90;99.90
10312;DHT22;5201;48.776;9.128;2023-04-25T13:54:14;11.70;99.90
10312;DHT22;5201;48.776;9.128;2023-04-25T13:56:41;12.10;99.90
10312;DHT22;5201;48.776;9.128;2023-04-25T13:59:07;11.90;99.90
10312;DHT22;5201;48.776;9.128;2023-04-25T14:01:33;11.90;99.90
10312;DHT22;5201;48.776;9.128;2023-04-25T14:04:01;11.90;99.90
10312;DHT22;5201;48.776;9.128;2023-04-25T14:06:27;12.20;99.90
10312;DHT22;5201;48.776;9.128;2023-04-25T14:08:53;12.00;99.90
10312;DHT22;5201;48.776;9.128;2023-04-25T14:11:19;11.90;99.90
10312;DHT22;5201;48.776;9.128;2023-04-25T14:13:45;12.10;99.90
10312;DHT22;5201;48.776;9.128;2023-04-25T14:16:11;12.00;99.90
10312;DHT22;5201;48.776;9.128;2023-04-25T14:18:37;12.30;99.90
10312;DHT22;5201;48.776;9.128;2023-04-25T14:21:02;12.10;99.90
10312;DHT22;5201;48.776;9.128;2023-04-25T14:23:28;12.00;99.90
10312;DHT22;5201;48.776;9.128;2023-04-25T14:25:54;11.90;99.90
10312;DHT22;5201;48.776;9.128;2023-04-25T14:28:19;12.00;99.90
10312;DHT22;5201;48.776;9.128;2023-04-25T14:30:45;12.10;99.90
10312;DHT22;5201;48.776;9.128;2023-04-25T14:33:11;12.40;99.90
10312;DHT22;5201;48.776;9.128;2023-04-25T14:35:37;11.80;99.90
10312;DHT22;5201;48.776;9.128;2023-04-25T14:38:02;11.90;99.90
10312;DHT22;5201;48.776;9.128;2023-04-25T14:40:28;11.90;99.90
10312;DHT22;5201;48.776;9.128;2023-04-25T14:42:54;12.00;99.90
10312;DHT22;5201;48.776;9.128;2023-04-25T14:45:19;12.00;99.90
10312;DHT22;5201;48.776;9.128;2023-04-25T14:47:45;12.30;99.90
10312;DHT22;5201;48.776;9.128;2023-04-25T14:50:11;11.80;99.90
10312;DHT22;5201;48.776;9.128;2023-04-25T14:52:37;11.80;99.90
10312;DHT22;5201;48.776;9.128;2023-04-25T14:55:03;11.90;99.90
10312;DHT22;5201;48.776;9.128;2023-04-25T14:57:33;11.70;99.90
10312;DHT22;5201;48.776;9.128;2023-04-25T14:59:59;11.70;99.90
10312;DHT22;5201;48.776;9.128;2023-04-25T15:02:25;11.70;99.90
10312;DHT22;5201;48.776;9.128;2023-04-25T15:04:52;11.80;99.90
10312;DHT22;5201;48.776;9.128;2023-04-25T15:07:17;11.90;99.90
10312;DHT22;5201;48.776;9.128;2023-04-25T15:09:43;12.00;99.90
10312;DHT22;5201;48.776;9.128;2023-04-25T15:12:09;12.40;99.90
10312;DHT22;5201;48.776;9.128;2023-04-25T15:14:34;11.90;99.90
10312;DHT22;5201;48.776;9.128;2023-04-25T15:17:00;11.70;99.90
10312;DHT22;5201;48.776;9.128;2023-04-25T15:19:26;11.60;99.90
10312;DHT22;5201;48.776;9.128;2023-04-25T15:21:52;11.60;99.90
10312;DHT22;5201;48.776;9.128;2023-04-25T15:24:18;11.50;99.90
10312;DHT22;5201;48.776;9.128;2023-04-25T15:26:43;11.30;99.90
10312;DHT22;5201;48.776;9.128;2023-04-25T15:29:10;11.80;99.90
10312;DHT22;5201;48.776;9.128;2023-04-25T15:31:37;11.60;99.90
10312;DHT22;5201;48.776;9.128;2023-04-25T15:34:03;12.20;99.90
10312;DHT22;5201;48.776;9.128;2023-04-25T15:36:29;11.70;99.90
10312;DHT22;5201;48.776;9.128;2023-04-25T15:38:55;11.70;99.90
10312;DHT22;5201;48.776;9.128;2023-04-25T15:41:21;11.70;99.90
10312;DHT22;5201;48.776;9.128;2023-04-25T15:43:47;11.30;99.90
10312;DHT22;5201;48.776;9.128;2023-04-25T15:46:13;11.10;99.90
10312;DHT22;5201;48.776;9.128;2023-04-25T15:48:39;10.90;99.90
10312;DHT22;5201;48.776;9.128;2023-04-25T15:51:04;11.30;99.90
10312;DHT22;5201;48.776;9.128;2023-04-25T15:53:31;11.10;99.90
10312;DHT22;5201;48.776;9.128;2023-04-25T15:55:56;11.20;99.90